HAZ2814 ZGGG-ZSPD
Flight info
| Callsign | HAZ2814 |
|---|---|
| Flight time | 1h 49m |
| Altitude | 35100 |
| Route | BOVMA9 BOVMA W41 OMDUP G471 EGEDA/K0861S1100 G471 PLT/K0856S1070 A599 ELNEX G204 SHZ W58 XSY |
| Aircraft | A321/M-SDE3FGHIRWY/LB1 |
Departure
| Time | 2026-05-07 11:14 |
|---|---|
| Airport | Guangzhou Baiyun International Airport (ZGGG) |
Arrival
| Time | 2026-05-07 13:03 |
|---|---|
| Airport | Shanghai Pudong International Airport (ZSPD) |
| Time | Latitude | Longitude | Altitude | Speed | Heading |
|---|---|---|---|---|---|
| 2026-05-07 10:48 | 23.40068 | 113.30597 | 54 ft | 0 kts | 355° |
| 2026-05-07 11:05 | 23.40045 | 113.30599 | 52 ft | 4 kts | 355° |
| 2026-05-07 11:06 | 23.40018 | 113.30601 | 51 ft | 4 kts | 358° |
| 2026-05-07 11:06 | 23.39992 | 113.30598 | 52 ft | 4 kts | 27° |
| 2026-05-07 11:06 | 23.39978 | 113.30582 | 49 ft | 3 kts | 90° |
| 2026-05-07 11:06 | 23.39978 | 113.30558 | 49 ft | 4 kts | 92° |
| 2026-05-07 11:07 | 23.39979 | 113.30551 | 51 ft | 0 kts | 92° |
| 2026-05-07 11:08 | 23.39979 | 113.30553 | 54 ft | 1 kts | 92° |
| 2026-05-07 11:09 | 23.39977 | 113.30582 | 54 ft | 6 kts | 93° |
| 2026-05-07 11:09 | 23.39963 | 113.30665 | 54 ft | 16 kts | 103° |
| 2026-05-07 11:09 | 23.39961 | 113.30769 | 50 ft | 13 kts | 55° |
| 2026-05-07 11:09 | 23.40037 | 113.30802 | 54 ft | 12 kts | 13° |
| 2026-05-07 11:10 | 23.40121 | 113.30822 | 54 ft | 13 kts | 13° |
| 2026-05-07 11:10 | 23.40196 | 113.30849 | 54 ft | 10 kts | 40° |
| 2026-05-07 11:10 | 23.40196 | 113.30916 | 54 ft | 10 kts | 102° |
| 2026-05-07 11:10 | 23.40176 | 113.31002 | 54 ft | 12 kts | 99° |
| 2026-05-07 11:11 | 23.40226 | 113.31052 | 54 ft | 10 kts | 16° |
| 2026-05-07 11:11 | 23.40305 | 113.31073 | 54 ft | 14 kts | 14° |
| 2026-05-07 11:11 | 23.40420 | 113.31103 | 54 ft | 19 kts | 14° |
| 2026-05-07 11:11 | 23.40561 | 113.31142 | 54 ft | 21 kts | 14° |
| 2026-05-07 11:12 | 23.40698 | 113.31178 | 54 ft | 20 kts | 14° |
| 2026-05-07 11:12 | 23.40827 | 113.31214 | 54 ft | 18 kts | 14° |
| 2026-05-07 11:12 | 23.40910 | 113.31242 | 54 ft | 9 kts | 36° |
| 2026-05-07 11:12 | 23.40914 | 113.31303 | 54 ft | 8 kts | 102° |
| 2026-05-07 11:13 | 23.40899 | 113.31371 | 53 ft | 11 kts | 104° |
| 2026-05-07 11:13 | 23.40856 | 113.31424 | 53 ft | 10 kts | 175° |
| 2026-05-07 11:13 | 23.40772 | 113.31405 | 52 ft | 22 kts | 194° |
| 2026-05-07 11:13 | 23.40402 | 113.31305 | 52 ft | 86 kts | 194° |
| 2026-05-07 11:14 | 23.39649 | 113.31102 | 50 ft | 135 kts | 194° |
| 2026-05-07 11:14 | 23.38610 | 113.30822 | 53 ft | 171 kts | 194° |
| 2026-05-07 11:14 | 23.37394 | 113.30495 | 312 ft | 182 kts | 193° |
| 2026-05-07 11:14 | 23.36168 | 113.30163 | 824 ft | 181 kts | 193° |
| 2026-05-07 11:15 | 23.34947 | 113.29831 | 1351 ft | 180 kts | 193° |
| 2026-05-07 11:15 | 23.33733 | 113.29501 | 1839 ft | 180 kts | 193° |
| 2026-05-07 11:15 | 23.32513 | 113.29169 | 2246 ft | 181 kts | 193° |
| 2026-05-07 11:15 | 23.31290 | 113.28838 | 2661 ft | 181 kts | 193° |
| 2026-05-07 11:16 | 23.30063 | 113.28515 | 3066 ft | 181 kts | 191° |
| 2026-05-07 11:16 | 23.28786 | 113.28440 | 3346 ft | 190 kts | 179° |
| 2026-05-07 11:16 | 23.27412 | 113.28452 | 3481 ft | 206 kts | 180° |
| 2026-05-07 11:16 | 23.25919 | 113.28446 | 3618 ft | 224 kts | 181° |
| 2026-05-07 11:17 | 23.24270 | 113.28426 | 3714 ft | 250 kts | 181° |
| 2026-05-07 11:17 | 23.22484 | 113.28406 | 4199 ft | 261 kts | 181° |
| 2026-05-07 11:17 | 23.20652 | 113.28387 | 4855 ft | 265 kts | 181° |
| 2026-05-07 11:17 | 23.18784 | 113.28320 | 5437 ft | 271 kts | 188° |
| 2026-05-07 11:18 | 23.16928 | 113.27907 | 6084 ft | 274 kts | 194° |
| 2026-05-07 11:18 | 23.15691 | 113.27603 | 6492 ft | 276 kts | 194° |
| 2026-05-07 11:18 | 23.13130 | 113.27234 | 7267 ft | 284 kts | 173° |
| 2026-05-07 11:18 | 23.11285 | 113.28017 | 7826 ft | 292 kts | 144° |
| 2026-05-07 11:19 | 23.10005 | 113.29733 | 8372 ft | 299 kts | 113° |
| 2026-05-07 11:19 | 23.09624 | 113.31127 | 8723 ft | 303 kts | 102° |
| 2026-05-07 11:19 | 23.09215 | 113.33424 | 9296 ft | 307 kts | 97° |
| 2026-05-07 11:19 | 23.09196 | 113.35750 | 9837 ft | 311 kts | 82° |
| 2026-05-07 11:20 | 23.09680 | 113.38105 | 10112 ft | 324 kts | 69° |
| 2026-05-07 11:20 | 23.10684 | 113.40324 | 10234 ft | 341 kts | 56° |
| 2026-05-07 11:20 | 23.12025 | 113.42565 | 10355 ft | 358 kts | 55° |
| 2026-05-07 11:20 | 23.13393 | 113.44866 | 10468 ft | 375 kts | 56° |
| 2026-05-07 11:21 | 23.14833 | 113.47305 | 10584 ft | 391 kts | 56° |
| 2026-05-07 11:21 | 23.16340 | 113.49871 | 10819 ft | 402 kts | 56° |
| 2026-05-07 11:21 | 23.17850 | 113.52451 | 11244 ft | 406 kts | 56° |
| 2026-05-07 11:21 | 23.19374 | 113.55053 | 11725 ft | 410 kts | 56° |
| 2026-05-07 11:22 | 23.20911 | 113.57674 | 12191 ft | 413 kts | 56° |
| 2026-05-07 11:22 | 23.22459 | 113.60315 | 12652 ft | 416 kts | 56° |
| 2026-05-07 11:22 | 23.24000 | 113.62944 | 13099 ft | 419 kts | 56° |
| 2026-05-07 11:22 | 23.25566 | 113.65623 | 13533 ft | 422 kts | 56° |
| 2026-05-07 11:23 | 23.27145 | 113.68329 | 13916 ft | 425 kts | 56° |
| 2026-05-07 11:23 | 23.28737 | 113.71049 | 14280 ft | 428 kts | 56° |
| 2026-05-07 11:23 | 23.30340 | 113.73783 | 14664 ft | 430 kts | 56° |
| 2026-05-07 11:23 | 23.31954 | 113.76535 | 15013 ft | 433 kts | 56° |
| 2026-05-07 11:24 | 23.33577 | 113.79307 | 15352 ft | 436 kts | 56° |
| 2026-05-07 11:24 | 23.35208 | 113.82098 | 15715 ft | 439 kts | 56° |
| 2026-05-07 11:24 | 23.36852 | 113.84908 | 16064 ft | 441 kts | 56° |
| 2026-05-07 11:24 | 23.38501 | 113.87731 | 16415 ft | 443 kts | 56° |
| 2026-05-07 11:25 | 23.40160 | 113.90574 | 16763 ft | 446 kts | 56° |
| 2026-05-07 11:25 | 23.41825 | 113.93432 | 17110 ft | 448 kts | 56° |
| 2026-05-07 11:25 | 23.43495 | 113.96302 | 17442 ft | 450 kts | 56° |
| 2026-05-07 11:25 | 23.45174 | 113.99189 | 17781 ft | 453 kts | 56° |
| 2026-05-07 11:26 | 23.46865 | 114.02094 | 18112 ft | 455 kts | 56° |
| 2026-05-07 11:26 | 23.48563 | 114.05005 | 18424 ft | 456 kts | 56° |
| 2026-05-07 11:26 | 23.50270 | 114.07931 | 18700 ft | 459 kts | 56° |
| 2026-05-07 11:26 | 23.52136 | 114.10754 | 18947 ft | 459 kts | 47° |
| 2026-05-07 11:27 | 23.54389 | 114.13207 | 19231 ft | 458 kts | 37° |
| 2026-05-07 11:27 | 23.56977 | 114.15216 | 19519 ft | 456 kts | 27° |
| 2026-05-07 11:27 | 23.59796 | 114.16773 | 19793 ft | 455 kts | 22° |
| 2026-05-07 11:27 | 23.62670 | 114.18250 | 20056 ft | 458 kts | 22° |
| 2026-05-07 11:28 | 23.65551 | 114.19735 | 20372 ft | 459 kts | 22° |
| 2026-05-07 11:28 | 23.68442 | 114.21226 | 20657 ft | 461 kts | 22° |
| 2026-05-07 11:28 | 23.71347 | 114.22725 | 20940 ft | 462 kts | 22° |
| 2026-05-07 11:28 | 23.74259 | 114.24228 | 21221 ft | 464 kts | 22° |
| 2026-05-07 11:29 | 23.77184 | 114.25740 | 21505 ft | 466 kts | 22° |
| 2026-05-07 11:29 | 23.80114 | 114.27256 | 21785 ft | 467 kts | 22° |
| 2026-05-07 11:29 | 23.82956 | 114.29012 | 22054 ft | 473 kts | 31° |
| 2026-05-07 11:29 | 23.85609 | 114.31153 | 22334 ft | 475 kts | 34° |
| 2026-05-07 11:30 | 23.88259 | 114.33326 | 22597 ft | 477 kts | 34° |
| 2026-05-07 11:30 | 23.90922 | 114.35504 | 22874 ft | 479 kts | 34° |
| 2026-05-07 11:30 | 23.93593 | 114.37688 | 23158 ft | 481 kts | 34° |
| 2026-05-07 11:30 | 23.96280 | 114.39883 | 23393 ft | 484 kts | 34° |
| 2026-05-07 11:31 | 23.98983 | 114.42090 | 23595 ft | 485 kts | 34° |
| 2026-05-07 11:31 | 24.01694 | 114.44306 | 23794 ft | 487 kts | 34° |
| 2026-05-07 11:31 | 24.04411 | 114.46536 | 23990 ft | 489 kts | 34° |
| 2026-05-07 11:31 | 24.07131 | 114.48774 | 24229 ft | 490 kts | 34° |
| 2026-05-07 11:32 | 24.12597 | 114.53266 | 24674 ft | 492 kts | 34° |
| 2026-05-07 11:32 | 24.15341 | 114.55518 | 24885 ft | 494 kts | 34° |
| 2026-05-07 11:32 | 24.18088 | 114.57776 | 25150 ft | 494 kts | 33° |
| 2026-05-07 11:33 | 24.20838 | 114.60037 | 25393 ft | 495 kts | 33° |
| 2026-05-07 11:33 | 24.23594 | 114.62305 | 25593 ft | 496 kts | 33° |
| 2026-05-07 11:33 | 24.26354 | 114.64579 | 25802 ft | 497 kts | 33° |
| 2026-05-07 11:33 | 24.29118 | 114.66859 | 26006 ft | 498 kts | 33° |
| 2026-05-07 11:34 | 24.31885 | 114.69143 | 26266 ft | 497 kts | 33° |
| 2026-05-07 11:34 | 24.34644 | 114.71421 | 26540 ft | 496 kts | 33° |
| 2026-05-07 11:34 | 24.37393 | 114.73691 | 26847 ft | 495 kts | 33° |
| 2026-05-07 11:34 | 24.40141 | 114.75964 | 27115 ft | 493 kts | 33° |
| 2026-05-07 11:35 | 24.42879 | 114.78229 | 27366 ft | 493 kts | 33° |
| 2026-05-07 11:35 | 24.45618 | 114.80489 | 27614 ft | 492 kts | 33° |
| 2026-05-07 11:35 | 24.48350 | 114.82745 | 27872 ft | 492 kts | 33° |
| 2026-05-07 11:35 | 24.51082 | 114.85006 | 28130 ft | 491 kts | 33° |
| 2026-05-07 11:36 | 24.53809 | 114.87266 | 28360 ft | 491 kts | 33° |
| 2026-05-07 11:36 | 24.56530 | 114.89522 | 28604 ft | 490 kts | 33° |
| 2026-05-07 11:36 | 24.59347 | 114.91610 | 28843 ft | 486 kts | 25° |
| 2026-05-07 11:36 | 24.62380 | 114.93188 | 29084 ft | 480 kts | 16° |
| 2026-05-07 11:37 | 24.65560 | 114.94221 | 29333 ft | 474 kts | 8° |
| 2026-05-07 11:37 | 24.68779 | 114.94997 | 29581 ft | 474 kts | 8° |
| 2026-05-07 11:37 | 24.72003 | 114.95787 | 29813 ft | 475 kts | 8° |
| 2026-05-07 11:37 | 24.75225 | 114.96590 | 30035 ft | 475 kts | 8° |
| 2026-05-07 11:38 | 24.78441 | 114.97394 | 30246 ft | 474 kts | 8° |
| 2026-05-07 11:38 | 24.81658 | 114.98190 | 30439 ft | 474 kts | 8° |
| 2026-05-07 11:38 | 24.84875 | 114.98975 | 30673 ft | 473 kts | 8° |
| 2026-05-07 11:38 | 24.88085 | 114.99754 | 30894 ft | 472 kts | 8° |
| 2026-05-07 11:39 | 24.91296 | 115.00531 | 31110 ft | 472 kts | 8° |
| 2026-05-07 11:39 | 24.94498 | 115.01306 | 31352 ft | 471 kts | 8° |
| 2026-05-07 11:39 | 24.97701 | 115.02083 | 31601 ft | 471 kts | 7° |
| 2026-05-07 11:39 | 25.00890 | 115.02861 | 31831 ft | 470 kts | 7° |
| 2026-05-07 11:40 | 25.04081 | 115.03640 | 32073 ft | 469 kts | 7° |
| 2026-05-07 11:40 | 25.07264 | 115.04415 | 32324 ft | 468 kts | 7° |
| 2026-05-07 11:40 | 25.10451 | 115.05192 | 32564 ft | 468 kts | 7° |
| 2026-05-07 11:40 | 25.13628 | 115.05967 | 32789 ft | 467 kts | 7° |
| 2026-05-07 11:41 | 25.16757 | 115.06729 | 33019 ft | 467 kts | 7° |
| 2026-05-07 11:41 | 25.19973 | 115.07513 | 33266 ft | 467 kts | 7° |
| 2026-05-07 11:41 | 25.23100 | 115.08278 | 33506 ft | 466 kts | 7° |
| 2026-05-07 11:41 | 25.26270 | 115.09057 | 33698 ft | 467 kts | 7° |
| 2026-05-07 11:42 | 25.29449 | 115.09816 | 33895 ft | 466 kts | 4° |
| 2026-05-07 11:42 | 25.32642 | 115.10134 | 34088 ft | 458 kts | 354° |
| 2026-05-07 11:42 | 25.35789 | 115.09851 | 34280 ft | 450 kts | 345° |
| 2026-05-07 11:42 | 25.38802 | 115.09011 | 34479 ft | 443 kts | 335° |
| 2026-05-07 11:43 | 25.41617 | 115.07688 | 34677 ft | 438 kts | 330° |
| 2026-05-07 11:43 | 25.44377 | 115.06257 | 34885 ft | 438 kts | 330° |
| 2026-05-07 11:43 | 25.47141 | 115.04835 | 35004 ft | 438 kts | 330° |
| 2026-05-07 11:44 | 25.52671 | 115.02011 | 35036 ft | 438 kts | 330° |
| 2026-05-07 11:44 | 25.58221 | 114.99167 | 35031 ft | 440 kts | 330° |
| 2026-05-07 11:45 | 25.63779 | 114.96312 | 35034 ft | 440 kts | 330° |
| 2026-05-07 11:45 | 25.69336 | 114.93450 | 35034 ft | 440 kts | 330° |
| 2026-05-07 11:46 | 25.74996 | 114.90819 | 35041 ft | 448 kts | 342° |
| 2026-05-07 11:46 | 25.78115 | 114.90412 | 35042 ft | 458 kts | 356° |
| 2026-05-07 11:46 | 25.81292 | 114.90911 | 35042 ft | 469 kts | 12° |
| 2026-05-07 11:46 | 25.84320 | 114.92367 | 35049 ft | 481 kts | 27° |
| 2026-05-07 11:47 | 25.86939 | 114.94712 | 35039 ft | 490 kts | 42° |
| 2026-05-07 11:47 | 25.91628 | 115.00255 | 35021 ft | 493 kts | 43° |
| 2026-05-07 11:48 | 25.96316 | 115.05834 | 35022 ft | 495 kts | 43° |
| 2026-05-07 11:48 | 26.01014 | 115.11425 | 35030 ft | 495 kts | 43° |
| 2026-05-07 11:49 | 26.05719 | 115.17036 | 35033 ft | 496 kts | 43° |
| 2026-05-07 11:49 | 26.10419 | 115.22639 | 35038 ft | 496 kts | 43° |
| 2026-05-07 11:50 | 26.15121 | 115.28243 | 35041 ft | 496 kts | 43° |
| 2026-05-07 11:50 | 26.19826 | 115.33857 | 35046 ft | 496 kts | 43° |
| 2026-05-07 11:51 | 26.24527 | 115.39480 | 35050 ft | 495 kts | 43° |
| 2026-05-07 11:51 | 26.29222 | 115.45100 | 35066 ft | 496 kts | 42° |
| 2026-05-07 11:52 | 26.33928 | 115.50730 | 35049 ft | 497 kts | 42° |
| 2026-05-07 11:52 | 26.38632 | 115.56383 | 35051 ft | 498 kts | 42° |
| 2026-05-07 11:53 | 26.43353 | 115.62060 | 35068 ft | 499 kts | 43° |
| 2026-05-07 11:53 | 26.48068 | 115.67740 | 35071 ft | 498 kts | 43° |
| 2026-05-07 11:54 | 26.52777 | 115.73423 | 35083 ft | 499 kts | 43° |
| 2026-05-07 11:54 | 26.57495 | 115.79110 | 35067 ft | 499 kts | 42° |
| 2026-05-07 11:55 | 26.62212 | 115.84806 | 35064 ft | 500 kts | 43° |
| 2026-05-07 11:55 | 26.66930 | 115.90516 | 35079 ft | 500 kts | 43° |
| 2026-05-07 11:56 | 26.71641 | 115.96233 | 35071 ft | 500 kts | 43° |
| 2026-05-07 11:56 | 26.76356 | 116.01957 | 35082 ft | 501 kts | 43° |
| 2026-05-07 11:57 | 26.81077 | 116.07689 | 35081 ft | 501 kts | 43° |
| 2026-05-07 11:57 | 26.85797 | 116.13429 | 35080 ft | 501 kts | 43° |
| 2026-05-07 11:58 | 26.90511 | 116.19168 | 35082 ft | 501 kts | 43° |
| 2026-05-07 11:58 | 26.95229 | 116.24908 | 35090 ft | 501 kts | 43° |
| 2026-05-07 11:59 | 26.99976 | 116.30620 | 35085 ft | 501 kts | 42° |
| 2026-05-07 11:59 | 27.04737 | 116.36341 | 35083 ft | 502 kts | 42° |
| 2026-05-07 12:00 | 27.09487 | 116.42075 | 35082 ft | 502 kts | 42° |
| 2026-05-07 12:00 | 27.14242 | 116.47829 | 35082 ft | 502 kts | 42° |
| 2026-05-07 12:01 | 27.18990 | 116.53585 | 35094 ft | 502 kts | 42° |
| 2026-05-07 12:01 | 27.22948 | 116.58362 | 35091 ft | 502 kts | 41° |
| 2026-05-07 12:02 | 27.27784 | 116.64003 | 35087 ft | 501 kts | 40° |
| 2026-05-07 12:02 | 27.32653 | 116.69597 | 35083 ft | 500 kts | 41° |
| 2026-05-07 12:03 | 27.37499 | 116.75219 | 35081 ft | 500 kts | 41° |
| 2026-05-07 12:03 | 27.42327 | 116.80861 | 35085 ft | 501 kts | 41° |
| 2026-05-07 12:04 | 27.47152 | 116.86514 | 35083 ft | 501 kts | 41° |
| 2026-05-07 12:04 | 27.51980 | 116.92177 | 35089 ft | 501 kts | 41° |
| 2026-05-07 12:05 | 27.56818 | 116.97813 | 35085 ft | 500 kts | 40° |
| 2026-05-07 12:05 | 27.61680 | 117.03414 | 35103 ft | 500 kts | 40° |
| 2026-05-07 12:06 | 27.66551 | 117.09014 | 35088 ft | 501 kts | 40° |
| 2026-05-07 12:06 | 27.71417 | 117.14646 | 35098 ft | 501 kts | 40° |
| 2026-05-07 12:07 | 27.76271 | 117.20294 | 35096 ft | 502 kts | 40° |
| 2026-05-07 12:07 | 27.81107 | 117.25940 | 35116 ft | 500 kts | 40° |
| 2026-05-07 12:08 | 27.85960 | 117.31599 | 35090 ft | 501 kts | 40° |
| 2026-05-07 12:08 | 27.90812 | 117.37249 | 35105 ft | 502 kts | 40° |
| 2026-05-07 12:09 | 27.95667 | 117.42906 | 35105 ft | 501 kts | 40° |
| 2026-05-07 12:09 | 28.00486 | 117.48535 | 35093 ft | 501 kts | 40° |
| 2026-05-07 12:10 | 28.05318 | 117.54207 | 35102 ft | 501 kts | 40° |
| 2026-05-07 12:10 | 28.10198 | 117.59925 | 35096 ft | 502 kts | 40° |
| 2026-05-07 12:11 | 28.15022 | 117.65588 | 35097 ft | 503 kts | 40° |
| 2026-05-07 12:11 | 28.19878 | 117.71294 | 35090 ft | 503 kts | 40° |
| 2026-05-07 12:12 | 28.24729 | 117.77004 | 35094 ft | 503 kts | 40° |
| 2026-05-07 12:12 | 28.29585 | 117.82726 | 35093 ft | 503 kts | 40° |
| 2026-05-07 12:13 | 28.34441 | 117.88450 | 35094 ft | 503 kts | 40° |
| 2026-05-07 12:13 | 28.39294 | 117.94175 | 35095 ft | 503 kts | 40° |
| 2026-05-07 12:14 | 28.44127 | 117.99930 | 35112 ft | 504 kts | 41° |
| 2026-05-07 12:14 | 28.48893 | 118.05790 | 35095 ft | 505 kts | 42° |
| 2026-05-07 12:15 | 28.53636 | 118.11692 | 35094 ft | 506 kts | 42° |
| 2026-05-07 12:15 | 28.58390 | 118.17590 | 35094 ft | 506 kts | 42° |
| 2026-05-07 12:16 | 28.63190 | 118.23514 | 35095 ft | 506 kts | 41° |
| 2026-05-07 12:16 | 28.67966 | 118.29404 | 35098 ft | 506 kts | 41° |
| 2026-05-07 12:17 | 28.72745 | 118.35307 | 35092 ft | 507 kts | 41° |
| 2026-05-07 12:17 | 28.77523 | 118.41225 | 35097 ft | 507 kts | 41° |
| 2026-05-07 12:18 | 28.82261 | 118.47105 | 35092 ft | 507 kts | 41° |
| 2026-05-07 12:18 | 28.87028 | 118.53032 | 35112 ft | 507 kts | 41° |
| 2026-05-07 12:19 | 28.91798 | 118.58975 | 35094 ft | 508 kts | 41° |
| 2026-05-07 12:19 | 28.96610 | 118.64969 | 35098 ft | 509 kts | 41° |
| 2026-05-07 12:20 | 29.01356 | 118.70901 | 35103 ft | 509 kts | 41° |
| 2026-05-07 12:20 | 29.06128 | 118.76880 | 35124 ft | 510 kts | 41° |
| 2026-05-07 12:21 | 29.10917 | 118.82868 | 35105 ft | 510 kts | 41° |
| 2026-05-07 12:21 | 29.15716 | 118.88867 | 35107 ft | 511 kts | 41° |
| 2026-05-07 12:22 | 29.20509 | 118.94882 | 35116 ft | 512 kts | 41° |
| 2026-05-07 12:22 | 29.25292 | 119.00914 | 35141 ft | 511 kts | 41° |
| 2026-05-07 12:23 | 29.30071 | 119.06950 | 35118 ft | 511 kts | 41° |
| 2026-05-07 12:23 | 29.34849 | 119.12992 | 35118 ft | 511 kts | 41° |
| 2026-05-07 12:24 | 29.39624 | 119.19040 | 35112 ft | 512 kts | 41° |
| 2026-05-07 12:24 | 29.44398 | 119.25099 | 35125 ft | 512 kts | 41° |
| 2026-05-07 12:25 | 29.49171 | 119.31172 | 35129 ft | 512 kts | 41° |
| 2026-05-07 12:25 | 29.53941 | 119.37252 | 35119 ft | 513 kts | 41° |
| 2026-05-07 12:26 | 29.58641 | 119.43423 | 35121 ft | 518 kts | 48° |
| 2026-05-07 12:26 | 29.60549 | 119.46974 | 35122 ft | 526 kts | 59° |
| 2026-05-07 12:26 | 29.61924 | 119.50891 | 35115 ft | 532 kts | 70° |
| 2026-05-07 12:26 | 29.62712 | 119.55058 | 35137 ft | 536 kts | 82° |
| 2026-05-07 12:27 | 29.62898 | 119.59337 | 35131 ft | 537 kts | 91° |
| 2026-05-07 12:27 | 29.62683 | 119.67922 | 35124 ft | 538 kts | 91° |
| 2026-05-07 12:28 | 29.62498 | 119.76518 | 35114 ft | 539 kts | 91° |
| 2026-05-07 12:28 | 29.62330 | 119.85127 | 35106 ft | 539 kts | 91° |
| 2026-05-07 12:29 | 29.62154 | 119.93751 | 35117 ft | 540 kts | 91° |
| 2026-05-07 12:29 | 29.61959 | 120.02368 | 35121 ft | 540 kts | 91° |
| 2026-05-07 12:30 | 29.61748 | 120.10994 | 35122 ft | 540 kts | 91° |
| 2026-05-07 12:30 | 29.61539 | 120.19621 | 35124 ft | 540 kts | 91° |
| 2026-05-07 12:31 | 29.61326 | 120.28240 | 35128 ft | 540 kts | 91° |
| 2026-05-07 12:31 | 29.61126 | 120.36867 | 34950 ft | 541 kts | 91° |
| 2026-05-07 12:31 | 29.61029 | 120.41181 | 34467 ft | 539 kts | 91° |
| 2026-05-07 12:32 | 29.60932 | 120.45479 | 34013 ft | 538 kts | 91° |
| 2026-05-07 12:32 | 29.60830 | 120.49774 | 33492 ft | 538 kts | 91° |
| 2026-05-07 12:32 | 29.60725 | 120.54069 | 32988 ft | 537 kts | 91° |
| 2026-05-07 12:32 | 29.60616 | 120.58362 | 32511 ft | 538 kts | 91° |
| 2026-05-07 12:33 | 29.60391 | 120.66959 | 31492 ft | 539 kts | 91° |
| 2026-05-07 12:33 | 29.60276 | 120.71259 | 30897 ft | 538 kts | 91° |
| 2026-05-07 12:33 | 29.60333 | 120.75548 | 30315 ft | 536 kts | 83° |
| 2026-05-07 12:34 | 29.60900 | 120.79762 | 29690 ft | 532 kts | 74° |
| 2026-05-07 12:34 | 29.61972 | 120.83809 | 29020 ft | 527 kts | 65° |
| 2026-05-07 12:34 | 29.63516 | 120.87607 | 28370 ft | 523 kts | 56° |
| 2026-05-07 12:34 | 29.65446 | 120.91132 | 27735 ft | 520 kts | 52° |
| 2026-05-07 12:35 | 29.67445 | 120.94599 | 27108 ft | 521 kts | 52° |
| 2026-05-07 12:35 | 29.69446 | 120.98082 | 26489 ft | 522 kts | 52° |
| 2026-05-07 12:35 | 29.71446 | 121.01572 | 25893 ft | 523 kts | 53° |
| 2026-05-07 12:35 | 29.73443 | 121.05063 | 25317 ft | 523 kts | 53° |
| 2026-05-07 12:36 | 29.75445 | 121.08568 | 24758 ft | 525 kts | 53° |
| 2026-05-07 12:36 | 29.77452 | 121.12080 | 24192 ft | 526 kts | 53° |
| 2026-05-07 12:36 | 29.79462 | 121.15599 | 23725 ft | 527 kts | 53° |
| 2026-05-07 12:36 | 29.81474 | 121.19116 | 23226 ft | 524 kts | 53° |
| 2026-05-07 12:37 | 29.83468 | 121.22610 | 22715 ft | 521 kts | 53° |
| 2026-05-07 12:37 | 29.85446 | 121.26087 | 22205 ft | 517 kts | 54° |
| 2026-05-07 12:37 | 29.87459 | 121.29485 | 21699 ft | 510 kts | 49° |
| 2026-05-07 12:37 | 29.89804 | 121.32499 | 21198 ft | 501 kts | 39° |
| 2026-05-07 12:38 | 29.92434 | 121.34997 | 20733 ft | 492 kts | 31° |
| 2026-05-07 12:38 | 29.95376 | 121.37047 | 20249 ft | 484 kts | 23° |
| 2026-05-07 12:38 | 29.98293 | 121.38854 | 19785 ft | 481 kts | 24° |
| 2026-05-07 12:38 | 30.01225 | 121.40682 | 19325 ft | 478 kts | 24° |
| 2026-05-07 12:39 | 30.04135 | 121.42504 | 18882 ft | 474 kts | 24° |
| 2026-05-07 12:39 | 30.07021 | 121.44317 | 18669 ft | 472 kts | 24° |
| 2026-05-07 12:39 | 30.09902 | 121.46128 | 18663 ft | 471 kts | 24° |
| 2026-05-07 12:39 | 30.12786 | 121.47941 | 18401 ft | 470 kts | 23° |
| 2026-05-07 12:40 | 30.15624 | 121.49731 | 17912 ft | 461 kts | 23° |
| 2026-05-07 12:40 | 30.18411 | 121.51491 | 17400 ft | 451 kts | 23° |
| 2026-05-07 12:40 | 30.21141 | 121.53210 | 16897 ft | 442 kts | 23° |
| 2026-05-07 12:40 | 30.23821 | 121.54893 | 16403 ft | 434 kts | 23° |
| 2026-05-07 12:41 | 30.26451 | 121.56548 | 15918 ft | 427 kts | 24° |
| 2026-05-07 12:41 | 30.29031 | 121.58199 | 15436 ft | 420 kts | 24° |
| 2026-05-07 12:41 | 30.31562 | 121.59840 | 14974 ft | 414 kts | 24° |
| 2026-05-07 12:41 | 30.34053 | 121.61463 | 14515 ft | 408 kts | 24° |
| 2026-05-07 12:42 | 30.36511 | 121.63066 | 14060 ft | 403 kts | 25° |
| 2026-05-07 12:42 | 30.38921 | 121.64679 | 13578 ft | 398 kts | 26° |
| 2026-05-07 12:42 | 30.41286 | 121.66324 | 13073 ft | 394 kts | 27° |
| 2026-05-07 12:42 | 30.43612 | 121.67977 | 12563 ft | 390 kts | 27° |
| 2026-05-07 12:43 | 30.45909 | 121.69620 | 12067 ft | 386 kts | 27° |
| 2026-05-07 12:43 | 30.48166 | 121.71236 | 11807 ft | 376 kts | 27° |
| 2026-05-07 12:43 | 30.49620 | 121.72273 | 11773 ft | 364 kts | 27° |
| 2026-05-07 12:43 | 30.52417 | 121.74260 | 11778 ft | 341 kts | 27° |
| 2026-05-07 12:44 | 30.54412 | 121.75659 | 11672 ft | 329 kts | 25° |
| 2026-05-07 12:44 | 30.56473 | 121.76579 | 11547 ft | 309 kts | 6° |
| 2026-05-07 12:44 | 30.58553 | 121.76734 | 11319 ft | 294 kts | 349° |
| 2026-05-07 12:44 | 30.60506 | 121.76220 | 10975 ft | 285 kts | 336° |
| 2026-05-07 12:45 | 30.62394 | 121.75496 | 10603 ft | 285 kts | 337° |
| 2026-05-07 12:45 | 30.64275 | 121.74785 | 10252 ft | 284 kts | 337° |
| 2026-05-07 12:45 | 30.65518 | 121.74318 | 10016 ft | 283 kts | 337° |
| 2026-05-07 12:45 | 30.67411 | 121.73607 | 9627 ft | 281 kts | 337° |
| 2026-05-07 12:46 | 30.69244 | 121.72917 | 9271 ft | 280 kts | 337° |
| 2026-05-07 12:46 | 30.71093 | 121.72220 | 9018 ft | 280 kts | 337° |
| 2026-05-07 12:46 | 30.72943 | 121.71521 | 8773 ft | 279 kts | 337° |
| 2026-05-07 12:46 | 30.74792 | 121.70820 | 8521 ft | 279 kts | 339° |
| 2026-05-07 12:47 | 30.76643 | 121.70122 | 8270 ft | 280 kts | 338° |
| 2026-05-07 12:47 | 30.78497 | 121.69421 | 8028 ft | 280 kts | 339° |
| 2026-05-07 12:47 | 30.80351 | 121.68722 | 7789 ft | 280 kts | 339° |
| 2026-05-07 12:47 | 30.82200 | 121.68028 | 7539 ft | 279 kts | 340° |
| 2026-05-07 12:48 | 30.84048 | 121.67338 | 7301 ft | 278 kts | 340° |
| 2026-05-07 12:48 | 30.85888 | 121.66651 | 7066 ft | 277 kts | 337° |
| 2026-05-07 12:48 | 30.87713 | 121.65959 | 6828 ft | 273 kts | 339° |
| 2026-05-07 12:48 | 30.89502 | 121.65294 | 6584 ft | 267 kts | 344° |
| 2026-05-07 12:49 | 30.91332 | 121.65306 | 6335 ft | 265 kts | 17° |
| 2026-05-07 12:49 | 30.92862 | 121.66478 | 6080 ft | 262 kts | 51° |
| 2026-05-07 12:49 | 30.93645 | 121.68350 | 5846 ft | 263 kts | 72° |
| 2026-05-07 12:49 | 30.94051 | 121.70428 | 5609 ft | 264 kts | 86° |
| 2026-05-07 12:50 | 30.93808 | 121.72511 | 5357 ft | 260 kts | 111° |
| 2026-05-07 12:50 | 30.92874 | 121.74289 | 5099 ft | 257 kts | 134° |
| 2026-05-07 12:50 | 30.91434 | 121.75498 | 4850 ft | 256 kts | 157° |
| 2026-05-07 12:50 | 30.89745 | 121.76163 | 4601 ft | 258 kts | 163° |
| 2026-05-07 12:51 | 30.88026 | 121.76804 | 4358 ft | 260 kts | 162° |
| 2026-05-07 12:51 | 30.86311 | 121.77451 | 4105 ft | 259 kts | 161° |
| 2026-05-07 12:51 | 30.84594 | 121.78104 | 3859 ft | 259 kts | 161° |
| 2026-05-07 12:51 | 30.82895 | 121.78749 | 3605 ft | 257 kts | 161° |
| 2026-05-07 12:52 | 30.81192 | 121.79396 | 3364 ft | 259 kts | 161° |
| 2026-05-07 12:52 | 30.79480 | 121.80044 | 3110 ft | 258 kts | 160° |
| 2026-05-07 12:52 | 30.77799 | 121.80673 | 2968 ft | 249 kts | 160° |
| 2026-05-07 12:52 | 30.76174 | 121.81288 | 2969 ft | 244 kts | 157° |
| 2026-05-07 12:53 | 30.74783 | 121.82348 | 2980 ft | 239 kts | 129° |
| 2026-05-07 12:53 | 30.73982 | 121.83989 | 2966 ft | 233 kts | 101° |
| 2026-05-07 12:53 | 30.73888 | 121.85823 | 2972 ft | 227 kts | 75° |
| 2026-05-07 12:53 | 30.74328 | 121.87555 | 2975 ft | 219 kts | 68° |
| 2026-05-07 12:54 | 30.74783 | 121.89185 | 2972 ft | 207 kts | 68° |
| 2026-05-07 12:54 | 30.75240 | 121.90767 | 2988 ft | 205 kts | 65° |
| 2026-05-07 12:54 | 30.76100 | 121.92027 | 2988 ft | 198 kts | 34° |
| 2026-05-07 12:54 | 30.77378 | 121.92515 | 2975 ft | 187 kts | 2° |
| 2026-05-07 12:55 | 30.78634 | 121.92211 | 2979 ft | 182 kts | 344° |
| 2026-05-07 12:55 | 30.79818 | 121.91762 | 2998 ft | 178 kts | 344° |
| 2026-05-07 12:55 | 30.80988 | 121.91321 | 2984 ft | 176 kts | 345° |
| 2026-05-07 12:55 | 30.82148 | 121.90881 | 2980 ft | 175 kts | 345° |
| 2026-05-07 12:56 | 30.83305 | 121.90446 | 2977 ft | 175 kts | 345° |
| 2026-05-07 12:56 | 30.84464 | 121.90011 | 2977 ft | 175 kts | 345° |
| 2026-05-07 12:56 | 30.85623 | 121.89576 | 2984 ft | 176 kts | 344° |
| 2026-05-07 12:56 | 30.86796 | 121.89135 | 2984 ft | 177 kts | 344° |
| 2026-05-07 12:57 | 30.87967 | 121.88696 | 2985 ft | 178 kts | 343° |
| 2026-05-07 12:57 | 30.89154 | 121.88250 | 2985 ft | 180 kts | 344° |
| 2026-05-07 12:57 | 30.90341 | 121.87804 | 2980 ft | 179 kts | 344° |
| 2026-05-07 12:57 | 30.91524 | 121.87360 | 2987 ft | 177 kts | 345° |
| 2026-05-07 12:58 | 30.92691 | 121.86921 | 2983 ft | 177 kts | 343° |
| 2026-05-07 12:58 | 30.93858 | 121.86483 | 3000 ft | 175 kts | 345° |
| 2026-05-07 12:58 | 30.95022 | 121.86045 | 2994 ft | 178 kts | 343° |
| 2026-05-07 12:58 | 30.96216 | 121.85596 | 3000 ft | 182 kts | 343° |
| 2026-05-07 12:59 | 30.97425 | 121.85142 | 2987 ft | 183 kts | 343° |
| 2026-05-07 12:59 | 30.98614 | 121.84694 | 2835 ft | 177 kts | 343° |
| 2026-05-07 12:59 | 30.99771 | 121.84259 | 2632 ft | 172 kts | 344° |
| 2026-05-07 12:59 | 31.00839 | 121.83855 | 2423 ft | 155 kts | 345° |
| 2026-05-07 13:00 | 31.01842 | 121.83478 | 2219 ft | 148 kts | 345° |
| 2026-05-07 13:00 | 31.02817 | 121.83111 | 2034 ft | 146 kts | 345° |
| 2026-05-07 13:00 | 31.03761 | 121.82755 | 1839 ft | 137 kts | 346° |
| 2026-05-07 13:00 | 31.04652 | 121.82419 | 1666 ft | 133 kts | 345° |
| 2026-05-07 13:01 | 31.05525 | 121.82091 | 1474 ft | 131 kts | 345° |
| 2026-05-07 13:01 | 31.06389 | 121.81766 | 1309 ft | 130 kts | 345° |
| 2026-05-07 13:01 | 31.07248 | 121.81443 | 1140 ft | 129 kts | 345° |
| 2026-05-07 13:01 | 31.08103 | 121.81120 | 963 ft | 129 kts | 346° |
| 2026-05-07 13:02 | 31.08949 | 121.80801 | 813 ft | 127 kts | 346° |
| 2026-05-07 13:02 | 31.09794 | 121.80481 | 638 ft | 128 kts | 344° |
| 2026-05-07 13:02 | 31.10642 | 121.80161 | 456 ft | 128 kts | 345° |
| 2026-05-07 13:02 | 31.11486 | 121.79843 | 296 ft | 126 kts | 345° |
| 2026-05-07 13:03 | 31.12336 | 121.79523 | 107 ft | 130 kts | 343° |
| 2026-05-07 13:03 | 31.13181 | 121.79206 | 28 ft | 119 kts | 342° |
| 2026-05-07 13:03 | 31.13792 | 121.78974 | 22 ft | 65 kts | 342° |
| 2026-05-07 13:03 | 31.14053 | 121.78877 | 20 ft | 25 kts | 347° |
| 2026-05-07 13:04 | 31.14209 | 121.78875 | 22 ft | 20 kts | 9° |
| 2026-05-07 13:04 | 31.14336 | 121.78900 | 23 ft | 18 kts | 9° |
| 2026-05-07 13:04 | 31.14453 | 121.78919 | 23 ft | 17 kts | 360° |
| 2026-05-07 13:04 | 31.14565 | 121.78890 | 23 ft | 16 kts | 341° |
| 2026-05-07 13:05 | 31.14672 | 121.78850 | 26 ft | 15 kts | 342° |
| 2026-05-07 13:05 | 31.14738 | 121.78847 | 23 ft | 9 kts | 24° |
| 2026-05-07 13:05 | 31.14756 | 121.78904 | 24 ft | 8 kts | 80° |
| 2026-05-07 13:05 | 31.14773 | 121.78962 | 24 ft | 7 kts | 73° |
| 2026-05-07 13:06 | 31.14787 | 121.79023 | 26 ft | 11 kts | 73° |
| 2026-05-07 13:06 | 31.14815 | 121.79124 | 25 ft | 13 kts | 72° |
| 2026-05-07 13:06 | 31.14843 | 121.79227 | 24 ft | 13 kts | 72° |
| 2026-05-07 13:06 | 31.14816 | 121.79310 | 23 ft | 12 kts | 153° |
| 2026-05-07 13:07 | 31.14736 | 121.79342 | 23 ft | 14 kts | 162° |
| 2026-05-07 13:07 | 31.14637 | 121.79380 | 23 ft | 15 kts | 161° |
| 2026-05-07 13:07 | 31.14540 | 121.79417 | 23 ft | 15 kts | 163° |
| 2026-05-07 13:07 | 31.14428 | 121.79459 | 23 ft | 18 kts | 162° |
| 2026-05-07 13:08 | 31.14310 | 121.79503 | 23 ft | 17 kts | 162° |
| 2026-05-07 13:08 | 31.14201 | 121.79544 | 23 ft | 16 kts | 161° |
| 2026-05-07 13:08 | 31.14098 | 121.79584 | 23 ft | 16 kts | 162° |
| 2026-05-07 13:08 | 31.14038 | 121.79661 | 23 ft | 14 kts | 82° |
| 2026-05-07 13:09 | 31.13991 | 121.79734 | 24 ft | 12 kts | 149° |
| 2026-05-07 13:09 | 31.13982 | 121.79818 | 25 ft | 13 kts | 72° |
| 2026-05-07 13:09 | 31.14012 | 121.79916 | 23 ft | 13 kts | 70° |
| 2026-05-07 13:09 | 31.14013 | 121.80003 | 23 ft | 9 kts | 120° |
| 2026-05-07 13:10 | 31.13982 | 121.80059 | 23 ft | 7 kts | 123° |
| 2026-05-07 13:10 | 31.13968 | 121.80084 | 23 ft | 0 kts | 123° |
| 2026-05-07 13:16 | 31.13968 | 121.80085 | 23 ft | 0 kts | 123° |
| 2026-05-07 13:33 | 31.13968 | 121.80084 | 23 ft | 0 kts | 123° |
| 2026-05-07 13:43 | 31.13976 | 121.80070 | 16 ft | 4 kts | 123° |
| 2026-05-07 13:43 | 31.13990 | 121.80043 | 24 ft | 4 kts | 123° |
| 2026-05-07 13:44 | 31.14006 | 121.80018 | 26 ft | 4 kts | 133° |
| 2026-05-07 13:44 | 31.14025 | 121.80001 | 24 ft | 4 kts | 181° |
| 2026-05-07 13:44 | 31.14035 | 121.80005 | 25 ft | 2 kts | 253° |
| 2026-05-07 13:44 | 31.14041 | 121.80031 | 25 ft | 1 kts | 253° |
| 2026-05-07 13:46 | 31.14037 | 121.80014 | 26 ft | 6 kts | 253° |
| 2026-05-07 13:46 | 31.14018 | 121.79945 | 24 ft | 12 kts | 252° |
| 2026-05-07 13:47 | 31.13993 | 121.79857 | 26 ft | 11 kts | 252° |
| 2026-05-07 13:47 | 31.13970 | 121.79776 | 23 ft | 10 kts | 246° |
| 2026-05-07 13:47 | 31.13914 | 121.79762 | 23 ft | 10 kts | 163° |
| 2026-05-07 13:47 | 31.13829 | 121.79794 | 23 ft | 16 kts | 162° |
| 2026-05-07 13:48 | 31.13697 | 121.79844 | 23 ft | 24 kts | 162° |
| 2026-05-07 13:48 | 31.13541 | 121.79903 | 23 ft | 23 kts | 162° |
| 2026-05-07 13:48 | 31.13394 | 121.79958 | 23 ft | 21 kts | 162° |
| 2026-05-07 13:48 | 31.13256 | 121.80011 | 22 ft | 20 kts | 162° |
| 2026-05-07 13:49 | 31.13126 | 121.80060 | 23 ft | 19 kts | 162° |
| 2026-05-07 13:49 | 31.13011 | 121.80103 | 23 ft | 12 kts | 168° |
| 2026-05-07 13:49 | 31.12962 | 121.80052 | 22 ft | 9 kts | 249° |
| 2026-05-07 13:49 | 31.12942 | 121.79984 | 25 ft | 10 kts | 252° |
| 2026-05-07 13:50 | 31.12916 | 121.79890 | 22 ft | 13 kts | 252° |
| 2026-05-07 13:50 | 31.12935 | 121.79807 | 24 ft | 12 kts | 328° |
| 2026-05-07 13:50 | 31.13066 | 121.79753 | 21 ft | 42 kts | 342° |
| 2026-05-07 13:50 | 31.13553 | 121.79570 | 23 ft | 102 kts | 342° |
| 2026-05-07 13:51 | 31.14388 | 121.79255 | 23 ft | 147 kts | 342° |
| 2026-05-07 13:51 | 31.15447 | 121.78855 | 225 ft | 166 kts | 344° |
| 2026-05-07 13:51 | 31.16543 | 121.78441 | 834 ft | 166 kts | 345° |
| 2026-05-07 13:51 | 31.17628 | 121.78011 | 1450 ft | 163 kts | 347° |
| 2026-05-07 13:52 | 31.18697 | 121.77577 | 2006 ft | 162 kts | 347° |
| 2026-05-07 13:52 | 31.19760 | 121.77143 | 2507 ft | 162 kts | 347° |
| 2026-05-07 13:52 | 31.20822 | 121.76709 | 2979 ft | 162 kts | 343° |
| 2026-05-07 13:52 | 31.21905 | 121.76269 | 3317 ft | 172 kts | 344° |
| 2026-05-07 13:53 | 31.23096 | 121.75789 | 3445 ft | 189 kts | 343° |
| 2026-05-07 13:53 | 31.24398 | 121.75265 | 3556 ft | 208 kts | 343° |
| 2026-05-07 13:53 | 31.25849 | 121.74678 | 3696 ft | 234 kts | 343° |
| 2026-05-07 13:53 | 31.27446 | 121.74030 | 4105 ft | 250 kts | 341° |
| 2026-05-07 13:54 | 31.29110 | 121.73348 | 4786 ft | 256 kts | 339° |
| 2026-05-07 13:54 | 31.30810 | 121.72650 | 5449 ft | 262 kts | 338° |
| 2026-05-07 13:54 | 31.32419 | 121.71655 | 6122 ft | 264 kts | 317° |
| 2026-05-07 13:54 | 31.33576 | 121.70015 | 6800 ft | 263 kts | 295° |
| 2026-05-07 13:55 | 31.34088 | 121.67975 | 7503 ft | 263 kts | 274° |
| 2026-05-07 13:55 | 31.33923 | 121.65838 | 8184 ft | 267 kts | 259° |
| 2026-05-07 13:55 | 31.33561 | 121.63698 | 8913 ft | 269 kts | 259° |
| 2026-05-07 13:55 | 31.33197 | 121.61544 | 9600 ft | 272 kts | 260° |
| 2026-05-07 13:56 | 31.32832 | 121.59362 | 10239 ft | 277 kts | 260° |